Time;durP1;ratioP1;P1;durP2;ratioP2;P2;SDS_P1;SDS_P2;PMS_P1;PMS_P2;Temp;Humidity;BMP_temperature;BMP_pressure;BME280_temperature;BME280_humidity;BME280_pressure;Samples;Min_cycle;Max_cycle;Signal;HPM_P1;HPM_P2
2021/07/12 05:10:49;;;;;;;7.05;2.40;;;;;;;38.70;24.62;100753.38;1842807;76;28171;-71
2021/07/12 05:13:21;;;;;;;8.90;2.72;;;;;;;38.87;24.34;100752.98;1791215;77;21750;-68
2021/07/12 05:15:55;;;;;;;6.03;2.47;;;;;;;39.01;23.71;100757.01;1809984;77;21237;-72
2021/07/12 05:18:29;;;;;;;4.08;2.50;;;;;;;39.19;23.44;100758.78;1805683;78;21325;-66
2021/07/12 05:21:03;;;;;;;8.73;2.30;;;;;;;39.52;23.61;100761.98;1805343;78;21940;-70
2021/07/12 05:23:37;;;;;;;7.92;2.30;;;;;;;39.61;22.77;100761.48;1807409;78;21316;-66
2021/07/12 05:26:11;;;;;;;4.72;2.50;;;;;;;39.66;22.73;100762.71;1763457;79;21238;-68
2021/07/12 05:28:44;;;;;;;7.03;2.65;;;;;;;39.70;22.32;100756.83;1804114;78;21354;-66
2021/07/12 05:31:17;;;;;;;7.42;2.55;;;;;;;39.67;22.17;100760.23;1793237;78;21253;-66
2021/07/12 05:33:50;;;;;;;4.75;2.35;;;;;;;39.63;22.09;100761.97;1811017;78;21174;-68
2021/07/12 05:36:23;;;;;;;3.08;1.92;;;;;;;39.71;22.12;100759.83;1809159;78;21267;-66
2021/07/12 05:38:56;;;;;;;8.33;2.30;;;;;;;40.00;21.84;100768.30;1788124;78;21320;-69
2021/07/12 05:41:29;;;;;;;7.50;2.95;;;;;;;40.32;21.88;100760.20;1799502;78;22148;-71
2021/07/12 05:44:03;;;;;;;3.80;2.10;;;;;;;40.82;21.66;100770.95;1801518;78;21279;-67
2021/07/12 05:46:36;;;;;;;8.80;2.62;;;;;;;41.11;20.79;100762.05;1803755;78;21208;-68
2021/07/12 05:49:10;;;;;;;4.90;1.90;;;;;;;41.16;20.82;100767.37;1798652;78;21279;-73
2021/07/12 05:51:43;;;;;;;4.53;2.37;;;;;;;41.19;20.71;100772.22;1788238;78;21711;-67
2021/07/12 05:54:16;;;;;;;5.58;2.20;;;;;;;41.40;20.51;100776.45;1766182;79;21283;-75
2021/07/12 05:56:50;;;;;;;6.10;2.02;;;;;;;41.64;19.85;100780.23;1800021;78;21156;-65
2021/07/12 05:59:23;;;;;;;2.98;1.70;;;;;;;41.82;19.07;100768.63;1803480;78;21245;-68
2021/07/12 06:01:56;;;;;;;3.30;1.90;;;;;;;41.87;18.76;100771.75;1800416;78;21897;-67
2021/07/12 06:04:29;;;;;;;5.08;1.87;;;;;;;41.66;19.11;100773.02;1812994;78;21914;-68
2021/07/12 06:07:02;;;;;;;5.12;1.80;;;;;;;41.82;18.95;100764.50;1795652;78;21297;-69
2021/07/12 06:09:36;;;;;;;9.50;2.87;;;;;;;41.97;18.65;100762.52;1799202;78;21439;-70
2021/07/12 06:12:10;;;;;;;6.15;1.70;;;;;;;42.20;18.94;100769.34;1804418;78;21188;-68
2021/07/12 06:14:43;;;;;;;2.45;1.50;;;;;;;42.51;18.43;100766.81;1801979;78;21718;-69
2021/07/12 06:17:16;;;;;;;7.45;1.98;;;;;;;42.83;17.77;100768.20;1799596;78;21782;-68
2021/07/12 06:19:49;;;;;;;4.80;1.32;;;;;;;42.83;17.84;100765.44;1796055;78;21288;-67
2021/07/12 06:22:22;;;;;;;6.37;1.62;;;;;;;42.80;17.10;100763.36;1793776;78;21235;-69
2021/07/12 06:24:55;;;;;;;2.80;1.40;;;;;;;42.58;17.07;100773.95;1785020;78;27518;-67
2021/07/12 06:27:28;;;;;;;2.80;1.30;;;;;;;42.30;17.41;100778.37;1737713;81;21292;-67
2021/07/12 06:30:02;;;;;;;3.25;1.75;;;;;;;42.16;17.84;100767.60;1713878;83;21170;-69
2021/07/12 06:32:35;;;;;;;2.00;1.30;;;;;;;42.15;17.97;100761.88;1676350;84;21301;-66
2021/07/12 06:35:10;;;;;;;4.45;1.80;;;;;;;42.39;17.78;100763.40;1678042;84;21288;-74
2021/07/12 06:37:43;;;;;;;3.83;1.80;;;;;;;42.56;17.44;100761.10;1696162;83;21189;-70
2021/07/12 06:40:16;;;;;;;2.20;1.42;;;;;;;42.68;17.67;100763.31;1698796;83;21278;-71
2021/07/12 06:42:50;;;;;;;4.10;1.90;;;;;;;42.93;17.60;100764.80;1697509;83;21320;-66
2021/07/12 06:45:23;;;;;;;6.53;1.65;;;;;;;43.13;17.38;100762.58;1670654;84;21247;-67
2021/07/12 06:47:56;;;;;;;3.92;1.50;;;;;;;43.28;16.61;100774.33;1699112;83;21331;-72
2021/07/12 06:50:30;;;;;;;5.45;1.42;;;;;;;43.08;16.40;100769.67;1710483;82;21324;-74
2021/07/12 06:53:03;;;;;;;3.62;1.60;;;;;;;42.97;15.84;100774.02;1687939;83;21279;-71
2021/07/12 06:55:37;;;;;;;17.73;2.72;;;;;;;42.70;15.89;100774.01;1670768;83;21863;-67
2021/07/12 06:58:12;;;;;;;9.93;1.65;;;;;;;42.53;16.02;100770.03;1672390;84;21437;-67
2021/07/12 07:00:44;;;;;;;5.58;1.40;;;;;;;42.48;16.23;100772.39;1687212;83;21299;-69
2021/07/12 07:03:17;;;;;;;3.75;1.32;;;;;;;42.43;16.57;100767.64;1722468;82;21268;-65
2021/07/12 07:05:51;;;;;;;7.42;2.05;;;;;;;42.52;16.58;100775.28;1709626;82;21241;-66
2021/07/12 07:08:28;;;;;;;6.08;1.65;;;;;;;42.56;16.35;100778.44;1702239;83;21331;-67
2021/07/12 07:11:01;;;;;;;7.67;1.62;;;;;;;42.41;16.21;100776.81;1697577;84;21212;-68
2021/07/12 07:13:35;;;;;;;5.70;1.50;;;;;;;42.31;16.11;100785.47;1693543;83;21276;-73
2021/07/12 07:16:09;;;;;;;6.85;1.60;;;;;;;42.24;16.42;100779.13;1695268;83;21338;-67
2021/07/12 07:18:43;;;;;;;2.37;1.40;;;;;;;42.12;16.43;100774.36;1697503;83;21926;-69
2021/07/12 07:21:18;;;;;;;6.12;1.87;;;;;;;42.05;16.43;100780.94;1691329;83;21313;-67
2021/07/12 07:23:51;;;;;;;4.28;1.40;;;;;;;41.89;16.61;100766.16;1699696;83;21346;-71
2021/07/12 07:26:26;;;;;;;6.55;1.47;;;;;;;41.93;17.21;100772.59;1689831;84;21898;-65
2021/07/12 07:29:00;;;;;;;4.62;1.40;;;;;;;42.15;16.83;100774.27;1693453;83;21852;-66
2021/07/12 07:31:34;;;;;;;4.65;1.40;;;;;;;42.24;16.66;100775.00;1689980;83;21286;-74
2021/07/12 07:34:07;;;;;;;8.20;1.60;;;;;;;42.30;16.11;100785.25;1686643;83;21374;-71
2021/07/12 07:36:40;;;;;;;5.35;1.57;;;;;;;42.13;16.33;100784.20;1682151;83;21223;-73
2021/07/12 07:39:13;;;;;;;12.43;1.90;;;;;;;42.02;16.57;100773.34;1681486;83;21353;-68
2021/07/12 07:41:46;;;;;;;5.00;1.40;;;;;;;41.99;16.71;100775.38;1695955;83;21295;-66
2021/07/12 07:44:19;;;;;;;5.12;1.57;;;;;;;41.98;16.72;100767.47;1717944;82;21232;-70
2021/07/12 07:46:52;;;;;;;2.35;1.30;;;;;;;41.94;17.39;100776.94;1708594;82;21362;-69
2021/07/12 07:49:27;;;;;;;11.38;1.77;;;;;;;42.31;16.75;100767.02;1708591;82;21866;-66
2021/07/12 07:52:00;;;;;;;6.00;1.40;;;;;;;42.54;17.02;100776.56;1677389;83;21324;-72
2021/07/12 07:54:33;;;;;;;13.98;2.65;;;;;;;42.79;16.60;100770.59;1684896;84;21752;-73
2021/07/12 07:57:07;;;;;;;3.67;1.37;;;;;;;42.89;16.59;100775.69;1695633;83;21292;-70
2021/07/12 07:59:40;;;;;;;4.67;1.50;;;;;;;42.83;15.91;100775.65;1704902;82;21311;-67
2021/07/12 08:02:13;;;;;;;9.38;1.95;;;;;;;42.49;15.93;100770.45;1718448;82;21366;-71
2021/07/12 08:04:48;;;;;;;1.95;1.70;;;;;;;42.41;16.72;100771.31;1719963;82;21862;-68
2021/07/12 08:07:21;;;;;;;5.10;1.40;;;;;;;42.35;16.90;100772.07;1715637;82;21333;-69
2021/07/12 08:09:54;;;;;;;10.15;2.10;;;;;;;42.22;16.74;100773.97;1679248;83;21175;-68
2021/07/12 08:12:27;;;;;;;4.05;2.00;;;;;;;42.20;17.09;100765.81;1677943;84;21937;-69
2021/07/12 08:15:02;;;;;;;4.28;1.35;;;;;;;42.36;16.44;100762.69;1682455;84;21376;-72
2021/07/12 08:17:35;;;;;;;6.25;2.70;;;;;;;42.23;16.62;100758.24;1692232;83;22265;-67
2021/07/12 08:20:10;;;;;;;10.13;2.22;;;;;;;42.07;17.10;100770.95;1707866;83;21760;-70
2021/07/12 08:22:46;;;;;;;4.75;1.90;;;;;;;42.07;16.92;100768.20;1710987;82;21626;-73
2021/07/12 08:25:19;;;;;;;2.80;1.45;;;;;;;41.94;16.83;100770.66;1708221;83;21319;-68
2021/07/12 08:27:52;;;;;;;5.25;1.55;;;;;;;41.78;17.33;100768.22;1693309;83;21210;-71
2021/07/12 08:30:26;;;;;;;8.73;1.60;;;;;;;41.58;17.23;100768.39;1689547;83;21342;-70
2021/07/12 08:32:59;;;;;;;6.70;1.32;;;;;;;41.39;16.94;100772.89;1680261;84;21259;-73
2021/07/12 08:35:32;;;;;;;11.80;1.65;;;;;;;41.22;17.66;100774.88;1701262;83;21188;-69
2021/07/12 08:38:07;;;;;;;4.83;1.50;;;;;;;41.01;17.18;100772.59;1699995;83;21906;-72
2021/07/12 08:40:40;;;;;;;6.60;1.72;;;;;;;40.81;17.45;100772.11;1701689;83;21343;-72
2021/07/12 08:43:15;;;;;;;12.03;1.50;;;;;;;40.59;17.81;100783.81;1690033;83;21240;-70
2021/07/12 08:45:48;;;;;;;8.38;1.80;;;;;;;40.59;17.88;100771.47;1715726;83;21861;-71
2021/07/12 08:48:21;;;;;;;2.90;1.50;;;;;;;40.51;17.65;100781.90;1681002;83;21319;-69
2021/07/12 08:50:55;;;;;;;6.35;2.87;;;;;;;40.42;18.38;100772.24;1697144;83;21136;-70
2021/07/12 08:53:29;;;;;;;2.52;1.90;;;;;;;40.46;18.42;100772.45;1695420;83;21228;-68
2021/07/12 08:56:02;;;;;;;16.52;3.47;;;;;;;40.47;17.69;100767.19;1718966;82;21232;-67
2021/07/12 08:58:36;;;;;;;5.72;1.60;;;;;;;40.25;18.08;100766.18;1696522;82;21180;-68
2021/07/12 09:01:10;;;;;;;3.12;1.50;;;;;;;39.97;18.21;100770.86;1716674;82;21360;-74
2021/07/12 09:03:50;;;;;;;4.90;1.92;;;;;;;39.77;18.46;100764.61;1691244;83;21309;-71
2021/07/12 09:06:25;;;;;;;7.45;2.17;;;;;;;39.56;18.68;100761.03;1687327;83;21274;-72
2021/07/12 09:09:04;;;;;;;14.00;2.67;;;;;;;39.29;18.97;100778.24;1674957;84;21319;-68
2021/07/12 09:11:35;;;;;;;5.22;2.20;;;;;;;38.97;18.98;100766.98;1690152;84;22216;-68
2021/07/12 09:14:12;;;;;;;9.50;2.60;;;;;;;38.76;19.66;100761.21;1672388;84;21316;-70
2021/07/12 09:16:51;;;;;;;9.78;1.90;;;;;;;38.70;19.27;100765.70;1687993;84;21239;-69
2021/07/12 09:19:35;;;;;;;4.67;2.12;;;;;;;38.50;19.43;100764.27;1696829;84;22523;-68
2021/07/12 09:22:10;;;;;;;5.33;1.70;;;;;;;38.28;19.91;100762.31;1687631;83;21858;-69
2021/07/12 09:24:55;;;;;;;9.48;2.10;;;;;;;38.19;20.09;100763.31;1694081;83;21885;-66
2021/07/12 09:27:30;;;;;;;1.70;1.60;;;;;;;38.14;20.40;100768.30;1695565;83;21357;-72
2021/07/12 09:30:09;;;;;;;3.33;1.67;;;;;;;37.95;20.08;100779.95;1686125;84;21196;-70
2021/07/12 09:32:44;;;;;;;3.33;1.70;;;;;;;37.55;20.52;100769.23;1686684;83;21898;-68
2021/07/12 09:35:19;;;;;;;2.35;1.35;;;;;;;37.33;21.75;100768.27;1682209;83;21318;-70
2021/07/12 09:38:00;;;;;;;6.90;1.90;;;;;;;37.22;21.41;100772.28;1690623;84;21231;-71
2021/07/12 09:40:33;;;;;;;2.92;1.60;;;;;;;37.01;22.42;100775.38;1680422;84;21296;-69
2021/07/12 09:43:06;;;;;;;4.25;2.00;;;;;;;36.84;21.69;100767.44;1716025;82;21914;-67
2021/07/12 09:45:42;;;;;;;12.33;2.62;;;;;;;36.64;22.02;100767.20;1683397;83;21892;-66
2021/07/12 09:48:17;;;;;;;2.10;1.67;;;;;;;36.40;22.21;100756.34;1682494;84;21253;-66
2021/07/12 09:50:50;;;;;;;8.68;1.77;;;;;;;36.14;22.77;100767.34;1697380;82;21279;-63
2021/07/12 09:53:33;;;;;;;4.22;2.12;;;;;;;35.92;22.72;100756.72;1682040;83;22012;-67
2021/07/12 09:56:17;;;;;;;9.83;1.90;;;;;;;35.72;23.36;100761.86;1693429;81;21374;-68
2021/07/12 09:58:48;;;;;;;;;;;;;;;35.50;23.61;100765.05;1722440;82;21823;-72
2021/07/12 10:01:25;;;;;;;6.12;2.00;;;;;;;35.19;23.55;100763.73;1702166;83;20308;-69
2021/07/12 10:03:59;;;;;;;6.53;2.05;;;;;;;34.93;24.54;100770.46;1688184;84;21291;-70
2021/07/12 10:06:33;;;;;;;1.60;1.50;;;;;;;34.85;23.76;100763.72;1720980;82;21868;-68
2021/07/12 10:09:08;;;;;;;5.08;2.20;;;;;;;34.74;24.63;100766.27;1708254;82;21365;-67
2021/07/12 10:11:48;;;;;;;3.62;1.80;;;;;;;34.72;24.81;100764.38;1705892;82;21334;-66
2021/07/12 10:14:17;;;;;;;7.80;2.20;;;;;;;34.85;24.93;100765.62;1700940;82;21411;-76
2021/07/12 10:16:51;;;;;;;3.85;1.60;;;;;;;35.02;25.21;100764.66;1681257;84;21305;-69
2021/07/12 10:19:25;;;;;;;5.45;2.17;;;;;;;35.00;24.07;100759.52;1668728;84;21216;-69
2021/07/12 10:21:59;;;;;;;10.05;2.47;;;;;;;34.92;24.50;100762.84;1681862;84;21184;-66
2021/07/12 10:24:40;;;;;;;;;;;;;;;34.86;24.37;100767.25;1696671;84;21318;-66
2021/07/12 10:27:26;;;;;;;8.45;2.05;;;;;;;34.78;25.08;100756.43;1693251;83;20319;-67
2021/07/12 10:30:01;;;;;;;5.95;1.87;;;;;;;34.73;24.46;100763.84;1698954;83;21200;-66
2021/07/12 10:32:36;;;;;;;4.78;1.87;;;;;;;34.54;24.52;100761.77;1705507;82;21315;-68
2021/07/12 10:35:09;;;;;;;2.33;1.50;;;;;;;34.46;24.50;100760.17;1682856;83;21378;-68
2021/07/12 10:37:42;;;;;;;3.77;1.65;;;;;;;34.34;25.15;100751.55;1691418;83;21212;-66
2021/07/12 10:40:21;;;;;;;9.15;2.92;;;;;;;34.31;26.03;100762.97;1696312;83;22201;-70
2021/07/12 10:42:55;;;;;;;3.22;2.35;;;;;;;34.31;25.68;100764.33;1700593;82;21731;-70
2021/07/12 10:45:37;;;;;;;7.12;2.10;;;;;;;34.32;25.02;100767.33;1698016;83;21298;-69
2021/07/12 10:48:13;;;;;;;6.97;2.02;;;;;;;34.22;24.72;100757.86;1696235;83;21265;-68
2021/07/12 10:50:51;;;;;;;3.98;2.08;;;;;;;34.14;25.12;100757.08;1714535;82;21260;-68
2021/07/12 10:53:30;;;;;;;6.28;1.98;;;;;;;34.09;25.58;100759.81;1714003;82;21299;-71
2021/07/12 10:56:12;;;;;;;2.75;1.67;;;;;;;33.89;25.60;100761.50;1715966;82;21292;-71
2021/07/12 10:58:46;;;;;;;7.62;1.95;;;;;;;33.75;25.61;100766.43;1708804;82;21304;-72
2021/07/12 11:01:21;;;;;;;1.67;1.57;;;;;;;33.65;26.14;100759.13;1710546;82;21262;-70
2021/07/12 11:03:55;;;;;;;4.12;1.90;;;;;;;33.65;25.31;100762.41;1675831;83;21299;-69
2021/07/12 11:06:30;;;;;;;6.53;1.80;;;;;;;33.62;25.29;100756.98;1693214;84;21874;-68
2021/07/12 11:09:03;;;;;;;2.22;1.50;;;;;;;33.65;25.42;100759.13;1658091;82;21264;-73
2021/07/12 11:11:42;;;;;;;;;;;;;;;33.68;25.61;100768.63;1680676;84;21363;-72
2021/07/12 11:14:16;;;;;;;7.35;2.20;;;;;;;33.68;25.41;100752.33;1687418;84;20253;-68
2021/07/12 11:16:51;;;;;;;2.02;1.77;;;;;;;33.69;25.72;100756.69;1665231;83;22443;-67
2021/07/12 11:19:29;;;;;;;2.00;1.80;;;;;;;33.73;26.07;100750.42;1708609;83;21340;-70
2021/07/12 11:22:25;;;;;;;9.28;2.12;;;;;;;33.81;26.26;100753.94;1710337;83;21181;-70
2021/07/12 11:25:09;;;;;;;1.90;1.70;;;;;;;33.83;25.47;100753.66;1701826;83;21195;-69
2021/07/12 11:27:46;;;;;;;6.12;2.30;;;;;;;33.76;25.50;100751.78;1710926;83;21894;-71
2021/07/12 11:30:34;;;;;;;7.75;1.90;;;;;;;33.70;25.45;100749.61;1708670;83;21981;-68
2021/07/12 11:33:07;;;;;;;5.17;1.80;;;;;;;33.62;25.86;100750.73;1701506;82;21340;-70
2021/07/12 11:35:39;;;;;;;;;;;;;;;33.55;25.26;100744.25;1716039;82;21567;-71
2021/07/12 11:38:12;;;;;;;7.42;1.70;;;;;;;33.50;25.65;100742.87;1716343;82;20219;-70
2021/07/12 11:40:44;;;;;;;;;;;;;;;33.47;25.58;100733.91;1713331;82;21400;-71
2021/07/12 11:43:31;;;;;;;3.12;1.62;;;;;;;33.47;25.82;100731.73;1700731;82;20281;-72
2021/07/12 11:46:04;;;;;;;3.47;2.30;;;;;;;33.49;25.84;100742.59;1717983;82;21363;-69
2021/07/12 11:48:38;;;;;;;3.17;2.12;;;;;;;33.53;25.75;100739.64;1705324;82;21276;-71
2021/07/12 11:51:17;;;;;;;2.95;1.75;;;;;;;33.50;26.14;100730.66;1719368;82;21357;-71
2021/07/12 11:53:51;;;;;;;6.95;4.30;;;;;;;33.46;25.83;100738.27;1701034;81;21747;-71
2021/07/12 11:56:24;;;;;;;4.50;2.40;;;;;;;33.42;26.26;100724.42;1702133;82;21294;-67
2021/07/12 11:59:00;;;;;;;11.03;3.10;;;;;;;33.38;26.44;100731.49;1707464;82;22377;-71
2021/07/12 12:01:32;;;;;;;4.22;1.90;;;;;;;33.37;25.80;100743.97;1677845;84;22114;-69
2021/07/12 12:04:22;;;;;;;3.30;1.90;;;;;;;33.33;26.14;100726.61;1683720;84;21668;-69
2021/07/12 12:06:55;;;;;;;;;;;;;;;33.34;26.79;100720.11;1677570;84;21159;-69
2021/07/12 12:09:28;;;;;;;5.12;1.77;;;;;;;33.38;27.25;100721.17;1682672;84;20269;-69
2021/07/12 12:12:04;;;;;;;2.90;1.80;;;;;;;33.38;26.98;100729.31;1710295;82;21273;-71
2021/07/12 12:14:39;;;;;;;3.37;1.60;;;;;;;33.29;26.94;100731.79;1711572;82;21342;-69
2021/07/12 12:17:13;;;;;;;10.08;2.25;;;;;;;33.19;27.60;100732.62;1710775;82;21311;-71
2021/07/12 12:20:06;;;;;;;3.65;2.17;;;;;;;33.10;27.71;100742.94;1669538;84;21188;-67
2021/07/12 12:22:54;;;;;;;4.00;1.80;;;;;;;32.97;26.83;100734.77;1698781;83;21339;-69
2021/07/12 12:25:28;;;;;;;5.85;2.00;;;;;;;32.87;27.22;100714.42;1697679;82;21372;-72
2021/07/12 12:28:02;;;;;;;8.08;1.87;;;;;;;32.90;26.69;100717.95;1695391;83;21178;-71
2021/07/12 12:30:36;;;;;;;5.70;1.70;;;;;;;32.96;26.67;100719.56;1694237;83;22659;-67
2021/07/12 12:33:10;;;;;;;16.40;2.00;;;;;;;33.03;26.65;100716.06;1696346;83;21169;-69
2021/07/12 12:35:44;;;;;;;4.97;1.52;;;;;;;33.03;26.27;100722.84;1678675;83;21865;-73
2021/07/12 12:38:17;;;;;;;5.30;2.05;;;;;;;33.00;26.95;100718.49;1671238;84;21882;-69
2021/07/12 12:40:57;;;;;;;5.12;1.80;;;;;;;32.97;27.09;100717.14;1673651;84;22449;-71
2021/07/12 12:43:30;;;;;;;4.97;1.70;;;;;;;32.93;26.47;100717.95;1682071;83;21334;-72
2021/07/12 12:46:06;;;;;;;5.20;1.85;;;;;;;32.81;27.01;100720.12;1687893;83;21159;-70
2021/07/12 12:48:43;;;;;;;10.75;2.52;;;;;;;32.68;26.76;100722.00;1705785;82;21261;-70
2021/07/12 12:51:34;;;;;;;8.40;2.35;;;;;;;32.59;26.29;100714.42;1721792;82;21362;-73
2021/07/12 12:54:13;;;;;;;9.55;2.67;;;;;;;32.60;26.66;100714.68;1706344;83;21310;-69
2021/07/12 12:56:53;;;;;;;5.87;1.98;;;;;;;32.67;27.45;100712.26;1668274;84;21236;-70
2021/07/12 12:59:36;;;;;;;1.75;1.50;;;;;;;32.68;27.12;100703.03;1662834;84;21326;-66
2021/07/12 13:02:21;;;;;;;1.62;1.50;;;;;;;32.68;26.99;100709.27;1670341;84;21236;-70
2021/07/12 13:04:55;;;;;;;4.97;1.53;;;;;;;32.62;27.35;100698.70;1662177;84;21171;-68
2021/07/12 13:07:31;;;;;;;2.87;1.75;;;;;;;32.62;27.35;100698.70;1667489;85;21787;-67
2021/07/12 13:10:20;;;;;;;4.12;1.40;;;;;;;32.58;26.72;100703.83;1717751;82;21648;-70
2021/07/12 13:12:57;;;;;;;5.25;1.98;;;;;;;32.55;26.06;100711.17;1708080;81;21306;-71
2021/07/12 13:15:32;;;;;;;4.90;1.67;;;;;;;32.50;26.81;100707.92;1710443;82;21311;-68
2021/07/12 13:18:10;;;;;;;8.38;2.02;;;;;;;32.42;26.63;100707.05;1696407;83;21324;-72
2021/07/12 13:20:50;;;;;;;5.53;1.60;;;;;;;32.34;26.94;100704.03;1658950;85;21274;-69
2021/07/12 13:23:29;;;;;;;1.92;1.35;;;;;;;32.26;27.05;100700.52;1681993;82;21243;-68
2021/07/12 13:26:12;;;;;;;2.50;1.60;;;;;;;32.20;26.82;100696.97;1659272;85;21760;-69
2021/07/12 13:28:45;;;;;;;5.87;1.80;;;;;;;32.16;27.51;100701.31;1718537;82;21376;-68
2021/07/12 13:31:20;;;;;;;3.40;1.62;;;;;;;32.14;27.89;100699.41;1682779;82;21200;-69
2021/07/12 13:33:53;;;;;;;5.72;1.57;;;;;;;32.12;27.32;100699.41;1676383;83;21335;-65
2021/07/12 13:36:26;;;;;;;2.70;1.30;;;;;;;32.08;26.89;100701.81;1670857;83;21201;-66
2021/07/12 13:38:59;;;;;;;2.92;1.45;;;;;;;32.05;27.45;100696.13;1680590;83;21280;-69
2021/07/12 13:41:34;;;;;;;2.17;1.30;;;;;;;32.02;27.07;100700.19;1658273;84;21306;-70
2021/07/12 13:44:08;;;;;;;6.62;1.40;;;;;;;31.98;27.15;100703.13;1667238;83;22202;-70
2021/07/12 13:46:42;;;;;;;3.42;1.65;;;;;;;31.94;27.36;100700.12;1681378;83;21213;-67
2021/07/12 13:49:15;;;;;;;3.90;1.25;;;;;;;31.90;26.92;100705.81;1676429;83;21354;-69
2021/07/12 13:51:48;;;;;;;2.47;1.37;;;;;;;31.87;26.40;100698.74;1679708;83;21921;-70
2021/07/12 13:54:21;;;;;;;2.08;1.45;;;;;;;31.85;26.63;100699.02;1656274;84;21336;-69
2021/07/12 13:56:54;;;;;;;8.33;1.80;;;;;;;31.84;26.89;100709.56;1681661;82;21904;-66
2021/07/12 13:59:28;;;;;;;2.12;1.40;;;;;;;31.81;26.42;100703.31;1649603;84;21221;-63
2021/07/12 14:02:01;;;;;;;6.12;1.40;;;;;;;31.79;27.08;100700.06;1681093;84;21341;-67
2021/07/12 14:04:34;;;;;;;;;;;;;;;31.77;26.79;100697.34;1682398;84;21231;-65
2021/07/12 14:07:07;;;;;;;5.58;1.37;;;;;;;31.74;26.25;100703.30;1692214;84;20228;-70
2021/07/12 14:09:41;;;;;;;2.58;1.40;;;;;;;31.67;26.57;100704.87;1689301;84;21319;-70
2021/07/12 14:12:14;;;;;;;1.40;1.30;;;;;;;31.64;26.26;100707.31;1675312;84;21805;-66
2021/07/12 14:14:46;;;;;;;;;;;;;;;31.61;26.07;100703.77;1690360;84;21823;-66
2021/07/12 14:17:19;;;;;;;1.32;1.22;;;;;;;31.60;25.73;100700.81;1699126;84;20268;-68
2021/07/12 14:19:52;;;;;;;14.13;1.45;;;;;;;31.57;26.40;100699.44;1690744;84;21288;-70
2021/07/12 14:22:26;;;;;;;4.17;1.20;;;;;;;31.55;25.96;100701.56;1687586;84;21170;-70
2021/07/12 14:25:00;;;;;;;3.15;1.20;;;;;;;31.53;25.92;100700.20;1699606;84;21340;-66
2021/07/12 14:27:33;;;;;;;3.83;1.20;;;;;;;31.50;25.83;100701.57;1681957;84;21232;-70
2021/07/12 14:30:06;;;;;;;;;;;;;;;31.48;25.42;100699.64;1703762;84;21383;-66
2021/07/12 14:32:38;;;;;;;3.27;1.20;;;;;;;31.45;25.86;100694.77;1688029;84;20236;-65
2021/07/12 14:35:12;;;;;;;7.72;1.87;;;;;;;31.40;25.57;100692.54;1684935;84;21188;-68
2021/07/12 14:37:45;;;;;;;4.30;1.00;;;;;;;31.35;25.57;100691.16;1699272;84;21215;-64
2021/07/12 14:40:20;;;;;;;1.77;1.10;;;;;;;31.31;24.60;100689.53;1681019;84;21213;-66
2021/07/12 14:42:59;;;;;;;4.62;1.35;;;;;;;31.29;24.38;100691.66;1700246;84;21332;-69
2021/07/12 14:45:28;;;;;;;4.30;1.40;;;;;;;31.26;24.54;100685.44;1683274;84;21300;-64
2021/07/12 14:48:01;;;;;;;6.33;1.90;;;;;;;31.23;24.61;100687.30;1688303;84;21259;-65
2021/07/12 14:50:34;;;;;;;1.45;1.00;;;;;;;31.20;24.54;100680.52;1689848;84;21347;-64
2021/07/12 14:53:08;;;;;;;;;;;;;;;31.17;24.94;100677.51;1675026;85;21330;-65
2021/07/12 14:55:41;;;;;;;6.65;1.45;;;;;;;31.14;25.52;100674.78;1669138;84;20169;-64
2021/07/12 14:58:14;;;;;;;2.80;1.22;;;;;;;31.12;26.14;100685.05;1686238;84;21275;-64
2021/07/12 15:00:47;;;;;;;3.62;1.35;;;;;;;31.09;26.72;100681.55;1682183;84;21283;-65
2021/07/12 15:03:21;;;;;;;3.72;1.30;;;;;;;31.07;26.85;100688.28;1689535;84;21397;-64
2021/07/12 15:05:55;;;;;;;1.60;1.02;;;;;;;31.03;26.99;100683.92;1690727;84;21185;-65
2021/07/12 15:08:29;;;;;;;3.90;1.35;;;;;;;31.00;27.01;100687.70;1697261;84;21339;-66
2021/07/12 15:11:05;;;;;;;4.42;1.27;;;;;;;30.95;26.82;100685.77;1682023;84;21334;-65
2021/07/12 15:13:38;;;;;;;3.42;1.15;;;;;;;30.92;27.20;100684.93;1689337;84;21327;-67
2021/07/12 15:16:12;;;;;;;4.05;1.67;;;;;;;30.87;27.34;100687.56;1683544;84;21219;-65
2021/07/12 15:18:44;;;;;;;;;;;;;;;30.83;26.97;100689.16;1685468;84;21362;-65
2021/07/12 15:21:17;;;;;;;5.72;1.40;;;;;;;30.80;26.71;100684.80;1690540;84;20247;-65
2021/07/12 15:23:51;;;;;;;1.95;0.93;;;;;;;30.74;26.86;100679.88;1701341;84;21245;-65
2021/07/12 15:26:24;;;;;;;4.45;1.20;;;;;;;30.72;27.29;100684.73;1696400;84;21299;-64
2021/07/12 15:29:17;;;;;;;2.75;1.10;;;;;;;30.68;27.72;100685.50;1663743;84;21187;-65
2021/07/12 15:31:50;;;;;;;6.92;1.10;;;;;;;30.64;28.01;100685.22;1668203;84;21252;-66
2021/07/12 15:34:23;;;;;;;;;;;;;;;30.60;28.16;100687.61;1699005;84;21196;-65
2021/07/12 15:36:56;;;;;;;1.87;1.02;;;;;;;30.57;28.61;100690.81;1680111;84;20258;-65
2021/07/12 15:39:29;;;;;;;5.20;1.35;;;;;;;30.49;28.96;100689.95;1692065;84;21299;-64
2021/07/12 15:42:02;;;;;;;5.15;1.37;;;;;;;30.44;29.25;100689.90;1685446;84;21229;-64
2021/07/12 15:44:35;;;;;;;1.30;1.20;;;;;;;30.39;28.98;100697.95;1678946;84;21190;-64
2021/07/12 15:47:09;;;;;;;5.45;1.27;;;;;;;30.33;29.04;100689.50;1700181;84;21289;-65
2021/07/12 15:49:48;;;;;;;4.12;1.35;;;;;;;30.28;29.06;100696.72;1683293;84;21224;-64
2021/07/12 15:52:21;;;;;;;10.32;1.40;;;;;;;30.23;29.27;100706.94;1678529;84;21299;-65
2021/07/12 15:54:55;;;;;;;4.47;1.40;;;;;;;30.17;29.31;100705.77;1689300;84;21204;-64
2021/07/12 15:57:30;;;;;;;3.95;1.20;;;;;;;30.12;29.37;100709.23;1695846;84;21162;-65
2021/07/12 16:00:05;;;;;;;3.47;1.10;;;;;;;30.07;29.52;100713.22;1691050;84;21138;-65
2021/07/12 16:02:42;;;;;;;2.33;1.00;;;;;;;30.01;29.57;100704.80;1687702;84;21299;-65
2021/07/12 16:05:18;;;;;;;4.28;1.12;;;;;;;29.97;29.65;100705.03;1647319;85;21181;-65
2021/07/12 16:07:50;;;;;;;6.97;1.17;;;;;;;29.90;30.12;100699.80;1659642;85;21296;-64
2021/07/12 16:10:23;;;;;;;10.28;1.65;;;;;;;29.86;30.11;100707.30;1662358;84;21731;-65
2021/07/12 16:12:57;;;;;;;5.40;1.52;;;;;;;29.80;30.48;100708.33;1646787;85;21232;-64
2021/07/12 16:15:32;;;;;;;13.65;1.55;;;;;;;29.73;30.64;100704.97;1653502;84;21737;-65
2021/07/12 16:18:06;;;;;;;8.35;1.45;;;;;;;29.65;31.08;100704.86;1666570;84;21209;-65
2021/07/12 16:20:40;;;;;;;10.50;1.80;;;;;;;29.59;31.51;100716.64;1658611;85;21220;-64
2021/07/12 16:23:13;;;;;;;;;;;;;;;29.52;31.92;100711.16;1660123;85;21354;-65
2021/07/12 16:25:46;;;;;;;14.18;1.77;;;;;;;29.45;32.37;100718.63;1659339;85;20615;-64
2021/07/12 16:28:18;;;;;;;;;;;;;;;29.34;32.82;100714.95;1674815;86;21201;-64
2021/07/12 16:30:51;;;;;;;5.95;1.40;;;;;;;29.26;32.95;100717.53;1672953;86;20234;-64
2021/07/12 16:33:28;;;;;;;7.20;1.72;;;;;;;29.17;33.27;100721.68;1662144;85;21288;-64
2021/07/12 16:36:01;;;;;;;7.60;1.45;;;;;;;29.09;33.54;100726.68;1647795;85;21184;-64
2021/07/12 16:38:35;;;;;;;3.45;1.35;;;;;;;29.01;33.95;100727.08;1652672;85;21318;-64
2021/07/12 16:41:08;;;;;;;5.67;1.80;;;;;;;28.92;34.23;100729.38;1659468;85;21350;-64
2021/07/12 16:43:41;;;;;;;5.95;1.40;;;;;;;28.84;34.48;100724.91;1661784;85;21332;-64
2021/07/12 16:46:15;;;;;;;9.35;1.30;;;;;;;28.76;34.71;100734.73;1662079;85;21213;-64
2021/07/12 16:48:49;;;;;;;11.18;2.22;;;;;;;28.66;35.10;100732.67;1662307;85;21295;-65
2021/07/12 16:51:22;;;;;;;4.58;1.20;;;;;;;28.56;35.28;100729.23;1666512;85;21347;-63
2021/07/12 16:53:56;;;;;;;4.67;1.40;;;;;;;28.47;35.34;100733.91;1671080;85;21296;-63
2021/07/12 16:56:29;;;;;;;13.45;1.50;;;;;;;28.37;35.35;100733.22;1656554;85;21339;-63
2021/07/12 16:59:03;;;;;;;3.37;1.40;;;;;;;28.27;35.62;100730.33;1653004;85;21891;-63
2021/07/12 17:01:37;;;;;;;4.55;1.80;;;;;;;28.18;35.73;100733.64;1649034;85;21216;-63
2021/07/12 17:04:10;;;;;;;8.20;2.25;;;;;;;28.08;36.03;100729.40;1664904;85;21288;-63
2021/07/12 17:06:43;;;;;;;5.40;1.70;;;;;;;27.96;36.08;100729.41;1653765;85;21299;-64
2021/07/12 17:09:17;;;;;;;2.62;1.42;;;;;;;27.85;36.27;100732.41;1649197;85;21345;-63
2021/07/12 17:11:50;;;;;;;4.75;1.52;;;;;;;27.76;36.33;100735.70;1672803;85;21186;-63